Time;durP1;ratioP1;P1;durP2;ratioP2;P2;SDS_P1;SDS_P2;PMS_P1;PMS_P2;Temp;Humidity;BMP_temperature;BMP_pressure;BME280_temperature;BME280_humidity;BME280_pressure;Samples;Min_cycle;Max_cycle;Signal;HPM_P1;HPM_P2
2022/07/28 00:01:22;;;;;;;4.93;3.70;;;;;;;;;;5018252;28;20229;-82
2022/07/28 00:04:26;;;;;;;3.60;3.30;;;;;;;;;;5037237;28;20189;-82
2022/07/28 00:07:30;;;;;;;5.40;3.50;;;;;;;;;;4997664;28;20180;-82
2022/07/28 00:10:34;;;;;;;4.63;3.43;;;;;;;;;;5025153;28;20176;-82
2022/07/28 00:13:39;;;;;;;5.97;3.50;;;;;;;;;;5025627;28;20184;-83
2022/07/28 00:16:43;;;;;;;4.93;3.83;;;;;;;;;;5039122;28;20181;-82
2022/07/28 00:19:49;;;;;;;4.80;3.40;;;;;;;;;;5038581;28;20184;-82
2022/07/28 00:22:53;;;;;;;3.97;3.53;;;;;;;;;;5011427;28;20667;-81
2022/07/28 00:25:57;;;;;;;4.83;3.57;;;;;;;;;;5025986;28;20189;-83
2022/07/28 00:29:07;;;;;;;6.17;3.20;;;;;;;;;;5037842;28;20189;-81
2022/07/28 00:32:12;;;;;;;4.13;3.60;;;;;;;;;;5009886;28;20212;-81
2022/07/28 00:35:18;;;;;;;4.03;3.60;;;;;;;;;;5035658;28;20185;-81
2022/07/28 00:38:23;;;;;;;4.63;3.43;;;;;;;;;;5018097;28;20521;-83
2022/07/28 00:41:27;;;;;;;4.23;3.20;;;;;;;;;;5011368;28;20224;-83
2022/07/28 00:44:32;;;;;;;3.90;3.50;;;;;;;;;;5009250;28;20180;-83
2022/07/28 00:47:36;;;;;;;4.90;3.37;;;;;;;;;;5030969;28;20181;-82
2022/07/28 00:50:42;;;;;;;5.37;3.57;;;;;;;;;;5032835;28;20232;-81
2022/07/28 00:53:47;;;;;;;5.27;3.30;;;;;;;;;;5021362;28;20173;-81
2022/07/28 00:56:52;;;;;;;3.67;3.30;;;;;;;;;;5031602;28;20197;-82
2022/07/28 00:59:56;;;;;;;4.67;3.50;;;;;;;;;;5020010;28;20185;-81
2022/07/28 01:03:01;;;;;;;6.30;3.90;;;;;;;;;;5019139;28;20536;-81
2022/07/28 01:06:30;;;;;;;5.53;3.60;;;;;;;;;;5029755;28;20177;-84
2022/07/28 01:09:59;;;;;;;6.83;3.60;;;;;;;;;;4998290;28;20190;-83
2022/07/28 01:13:18;;;;;;;4.17;3.43;;;;;;;;;;5015596;28;20189;-81
2022/07/28 01:16:22;;;;;;;5.80;3.20;;;;;;;;;;5016403;28;20176;-81
2022/07/28 01:19:53;;;;;;;4.70;3.30;;;;;;;;;;5039590;28;20192;-82
2022/07/28 01:23:21;;;;;;;3.97;3.53;;;;;;;;;;5039230;28;20216;-83
2022/07/28 01:26:29;;;;;;;5.80;3.60;;;;;;;;;;5029423;28;20204;-81
2022/07/28 01:30:01;;;;;;;3.77;3.40;;;;;;;;;;5034799;28;20180;-84
2022/07/28 01:33:17;;;;;;;4.13;3.73;;;;;;;;;;5035401;28;20172;-83
2022/07/28 01:36:27;;;;;;;4.40;3.77;;;;;;;;;;5016402;28;20197;-84
2022/07/28 01:39:36;;;;;;;4.53;3.47;;;;;;;;;;5015783;28;20664;-83
2022/07/28 01:42:55;;;;;;;4.27;3.27;;;;;;;;;;5026147;28;20225;-84
2022/07/28 01:46:01;;;;;;;4.10;3.67;;;;;;;;;;5024398;28;20188;-84
2022/07/28 01:49:07;;;;;;;5.47;3.93;;;;;;;;;;5034423;28;20200;-83
2022/07/28 01:52:12;;;;;;;4.93;4.00;;;;;;;;;;5026328;28;20224;-81
2022/07/28 01:55:19;;;;;;;6.30;4.80;;;;;;;;;;5020477;28;20222;-83
2022/07/28 01:58:24;;;;;;;5.37;4.30;;;;;;;;;;5038455;28;20543;-83
2022/07/28 02:01:30;;;;;;;7.97;4.60;;;;;;;;;;5037647;28;20228;-83
2022/07/28 02:04:38;;;;;;;6.00;4.90;;;;;;;;;;5032825;28;20189;-81
2022/07/28 02:07:44;;;;;;;5.40;4.70;;;;;;;;;;5007380;28;20176;-84
2022/07/28 02:14:16;;;;;;;7.33;4.57;;;;;;;;;;5018413;28;20181;-83
2022/07/28 02:17:25;;;;;;;8.73;5.70;;;;;;;;;;5031350;28;20204;-83
2022/07/28 02:20:30;;;;;;;8.97;6.03;;;;;;;;;;5016075;28;20188;-83
2022/07/28 02:23:37;;;;;;;7.00;5.77;;;;;;;;;;5024029;28;20188;-82
2022/07/28 02:27:04;;;;;;;6.33;5.47;;;;;;;;;;5026555;28;20201;-82
2022/07/28 02:30:15;;;;;;;6.53;5.20;;;;;;;;;;5039334;28;20189;-82
2022/07/28 02:33:22;;;;;;;7.20;5.10;;;;;;;;;;5017089;28;20216;-82
2022/07/28 02:36:31;;;;;;;6.87;5.00;;;;;;;;;;5032244;28;20187;-83
2022/07/28 02:39:47;;;;;;;5.13;4.40;;;;;;;;;;5046769;28;20184;-82
2022/07/28 02:42:53;;;;;;;5.27;4.77;;;;;;;;;;5018876;28;20197;-82
2022/07/28 02:46:08;;;;;;;8.17;4.83;;;;;;;;;;5071429;28;20196;-82
2022/07/28 02:49:20;;;;;;;10.97;5.20;;;;;;;;;;5047451;28;20180;-81
2022/07/28 02:52:27;;;;;;;7.70;4.83;;;;;;;;;;5047027;28;20247;-82
2022/07/28 02:55:32;;;;;;;6.70;5.00;;;;;;;;;;5016226;28;20185;-82
2022/07/28 02:58:38;;;;;;;9.17;5.33;;;;;;;;;;5011770;28;20205;-83
2022/07/28 03:01:44;;;;;;;7.30;6.40;;;;;;;;;;5015891;28;20212;-82
2022/07/28 03:04:57;;;;;;;9.80;5.90;;;;;;;;;;5052391;28;20184;-82
2022/07/28 03:08:02;;;;;;;8.40;6.93;;;;;;;;;;5032543;28;20192;-82
2022/07/28 03:11:11;;;;;;;9.10;6.53;;;;;;;;;;5022554;28;20307;-84
2022/07/28 03:14:15;;;;;;;9.00;6.67;;;;;;;;;;5000165;28;20189;-81
2022/07/28 03:17:20;;;;;;;9.43;7.00;;;;;;;;;;5034204;28;20180;-84
2022/07/28 03:20:24;;;;;;;11.33;7.13;;;;;;;;;;5041605;28;20192;-83
2022/07/28 03:23:41;;;;;;;9.73;8.00;;;;;;;;;;5023115;28;20189;-83
2022/07/28 03:26:54;;;;;;;8.90;6.87;;;;;;;;;;5015117;28;20205;-83
2022/07/28 03:29:58;;;;;;;11.60;6.93;;;;;;;;;;5020701;28;20184;-83
2022/07/28 03:33:03;;;;;;;7.03;6.33;;;;;;;;;;5023511;28;20212;-82
2022/07/28 03:36:13;;;;;;;10.90;7.83;;;;;;;;;;5045263;28;20176;-83
2022/07/28 03:39:20;;;;;;;8.40;6.83;;;;;;;;;;5024359;28;20670;-81
2022/07/28 03:42:27;;;;;;;9.93;6.43;;;;;;;;;;5042006;28;20212;-81
2022/07/28 03:45:31;;;;;;;8.67;6.33;;;;;;;;;;5037693;28;20200;-81
2022/07/28 03:48:35;;;;;;;9.80;6.10;;;;;;;;;;5049278;28;20185;-81
2022/07/28 03:51:40;;;;;;;6.60;5.20;;;;;;;;;;5021960;28;20225;-81
2022/07/28 03:54:44;;;;;;;5.93;5.33;;;;;;;;;;5044487;28;20184;-82
2022/07/28 03:57:48;;;;;;;8.40;4.90;;;;;;;;;;5044988;28;20184;-81
2022/07/28 04:00:53;;;;;;;6.40;4.97;;;;;;;;;;5023382;28;20211;-82
2022/07/28 04:03:57;;;;;;;7.73;4.97;;;;;;;;;;5025793;28;20181;-82
2022/07/28 04:07:01;;;;;;;6.00;5.03;;;;;;;;;;5024593;28;20180;-82
2022/07/28 04:10:11;;;;;;;5.43;4.73;;;;;;;;;;5032613;28;20183;-81
2022/07/28 04:13:15;;;;;;;7.00;4.80;;;;;;;;;;5020734;28;20208;-82
2022/07/28 04:16:19;;;;;;;7.57;4.80;;;;;;;;;;5022270;28;20634;-82
2022/07/28 04:19:23;;;;;;;7.00;4.37;;;;;;;;;;5045182;28;20176;-82
2022/07/28 04:22:28;;;;;;;8.13;5.23;;;;;;;;;;5044324;28;20216;-82
2022/07/28 04:25:32;;;;;;;8.67;5.13;;;;;;;;;;5054617;23;20223;-90
2022/07/28 04:28:36;;;;;;;6.50;4.97;;;;;;;;;;5062534;28;20171;-90
2022/07/28 04:31:40;;;;;;;6.03;4.60;;;;;;;;;;5039541;28;20180;-89
2022/07/28 04:34:44;;;;;;;8.63;5.00;;;;;;;;;;5062411;28;20175;-90
2022/07/28 04:37:50;;;;;;;8.03;4.90;;;;;;;;;;5019747;28;20184;-89
2022/07/28 04:40:54;;;;;;;5.50;5.00;;;;;;;;;;5031075;28;20192;-86
2022/07/28 04:43:58;;;;;;;7.63;5.10;;;;;;;;;;5071471;28;20187;-89
2022/07/28 04:47:02;;;;;;;5.67;4.87;;;;;;;;;;5039077;28;20554;-86
2022/07/28 04:50:08;;;;;;;6.20;5.00;;;;;;;;;;5050901;28;20176;-89
2022/07/28 04:53:13;;;;;;;6.67;5.30;;;;;;;;;;5042924;28;20211;-86
2022/07/28 04:56:17;;;;;;;6.77;4.93;;;;;;;;;;5050853;28;20214;-86
2022/07/28 04:59:21;;;;;;;6.50;4.90;;;;;;;;;;5038888;28;20199;-86
2022/07/28 05:02:25;;;;;;;8.03;5.43;;;;;;;;;;5050213;28;20191;-86
2022/07/28 05:05:30;;;;;;;7.77;5.53;;;;;;;;;;5050133;28;20219;-86
2022/07/28 05:08:35;;;;;;;6.60;5.50;;;;;;;;;;5038887;28;20176;-86
2022/07/28 05:12:05;;;;;;;7.67;5.83;;;;;;;;;;5051231;28;20538;-86
2022/07/28 05:15:09;;;;;;;7.97;5.80;;;;;;;;;;5061783;28;20188;-86
2022/07/28 05:18:13;;;;;;;8.20;6.00;;;;;;;;;;5058847;28;20660;-86
2022/07/28 05:21:17;;;;;;;8.83;6.07;;;;;;;;;;5018643;28;20544;-86
2022/07/28 05:24:21;;;;;;;8.93;6.10;;;;;;;;;;5030229;28;20539;-86
2022/07/28 05:27:25;;;;;;;7.73;6.10;;;;;;;;;;5030075;28;20551;-86
2022/07/28 05:30:30;;;;;;;7.80;5.80;;;;;;;;;;5042698;28;20180;-86
2022/07/28 05:33:34;;;;;;;6.83;5.30;;;;;;;;;;5036872;28;20203;-86
2022/07/28 05:36:38;;;;;;;10.27;7.10;;;;;;;;;;5026291;28;20686;-85
2022/07/28 05:39:42;;;;;;;8.83;7.40;;;;;;;;;;5027179;28;20645;-85
2022/07/28 05:42:47;;;;;;;11.00;8.13;;;;;;;;;;5038479;28;20618;-85
2022/07/28 05:45:51;;;;;;;13.13;8.27;;;;;;;;;;5037763;28;20298;-85
2022/07/28 05:48:56;;;;;;;13.03;8.67;;;;;;;;;;5048682;28;20210;-85
2022/07/28 05:52:00;;;;;;;11.33;8.97;;;;;;;;;;5037243;28;20570;-85
2022/07/28 05:55:05;;;;;;;18.50;8.90;;;;;;;;;;5040908;28;20194;-86
2022/07/28 05:58:09;;;;;;;14.23;9.40;;;;;;;;;;5056968;28;20183;-86
2022/07/28 06:01:13;;;;;;;10.97;8.07;;;;;;;;;;5057438;28;20186;-86
2022/07/28 06:04:17;;;;;;;10.90;8.73;;;;;;;;;;5056330;28;20172;-86
2022/07/28 06:07:21;;;;;;;14.00;8.40;;;;;;;;;;5056322;28;20238;-85
2022/07/28 06:10:57;;;;;;;13.87;7.60;;;;;;;;;;5005544;28;20183;-86
2022/07/28 06:13:51;;;;;;;13.17;7.53;;;;;;;;;;5027531;28;20219;-86
2022/07/28 06:16:55;;;;;;;10.33;7.80;;;;;;;;;;5039514;28;20713;-87
2022/07/28 06:19:59;;;;;;;9.60;7.00;;;;;;;;;;5027866;28;20190;-87
2022/07/28 06:23:04;;;;;;;11.70;6.97;;;;;;;;;;5027640;28;20181;-86
2022/07/28 06:26:08;;;;;;;12.03;6.73;;;;;;;;;;5027666;28;20224;-86
2022/07/28 06:29:12;;;;;;;10.20;6.77;;;;;;;;;;5028216;28;20649;-86
2022/07/28 06:32:16;;;;;;;8.00;6.00;;;;;;;;;;5016846;28;20189;-86
2022/07/28 06:35:21;;;;;;;11.20;7.23;;;;;;;;;;5017929;28;20216;-85
2022/07/28 06:38:25;;;;;;;7.67;6.07;;;;;;;;;;5024913;28;20192;-85
2022/07/28 06:41:30;;;;;;;11.10;5.87;;;;;;;;;;5043302;28;20203;-85
2022/07/28 06:44:34;;;;;;;11.57;5.50;;;;;;;;;;5052444;28;20190;-85
2022/07/28 06:47:37;;;;;;;8.17;5.33;;;;;;;;;;5054009;28;20183;-85
2022/07/28 06:50:41;;;;;;;9.90;5.77;;;;;;;;;;5053924;28;20202;-85
2022/07/28 06:53:47;;;;;;;9.03;5.70;;;;;;;;;;5052089;28;20207;-85
2022/07/28 06:56:52;;;;;;;8.03;5.83;;;;;;;;;;5036809;28;20224;-86
2022/07/28 06:59:56;;;;;;;7.70;5.60;;;;;;;;;;5033657;28;20627;-86
2022/07/28 07:03:00;;;;;;;6.97;4.80;;;;;;;;;;5022074;28;20184;-85
2022/07/28 07:06:04;;;;;;;6.57;4.57;;;;;;;;;;5032729;28;20563;-86
2022/07/28 07:09:08;;;;;;;8.10;5.30;;;;;;;;;;5044018;28;20196;-85
2022/07/28 07:12:13;;;;;;;8.03;5.20;;;;;;;;;;5032959;28;20180;-86
2022/07/28 07:15:17;;;;;;;8.60;5.27;;;;;;;;;;5021860;28;20168;-86
2022/07/28 07:18:21;;;;;;;8.70;5.30;;;;;;;;;;5021780;28;20348;-86
2022/07/28 07:21:25;;;;;;;8.93;5.30;;;;;;;;;;5032814;28;20177;-86
2022/07/28 07:24:29;;;;;;;7.90;4.97;;;;;;;;;;5021533;28;20176;-84
2022/07/28 07:27:33;;;;;;;8.80;5.30;;;;;;;;;;5020953;28;20528;-85
2022/07/28 07:30:37;;;;;;;6.20;5.27;;;;;;;;;;5032125;28;20184;-85
2022/07/28 07:33:42;;;;;;;7.37;4.90;;;;;;;;;;5032703;28;20219;-85
2022/07/28 07:36:45;;;;;;;7.60;4.63;;;;;;;;;;5031901;28;20212;-85
2022/07/28 07:39:50;;;;;;;5.87;4.80;;;;;;;;;;5035284;28;20540;-85
2022/07/28 07:42:54;;;;;;;8.73;5.23;;;;;;;;;;5062048;28;20195;-85
2022/07/28 07:45:58;;;;;;;7.27;4.73;;;;;;;;;;5052279;28;20214;-86
2022/07/28 07:49:02;;;;;;;7.97;5.20;;;;;;;;;;5053942;28;20183;-84
2022/07/28 07:52:06;;;;;;;5.90;4.37;;;;;;;;;;5052417;28;20191;-84
2022/07/28 07:55:11;;;;;;;7.20;4.97;;;;;;;;;;5075718;28;20187;-85
2022/07/28 07:58:15;;;;;;;6.77;4.77;;;;;;;;;;5064186;28;20195;-85
2022/07/28 08:01:19;;;;;;;8.97;4.77;;;;;;;;;;5021255;28;20192;-85
2022/07/28 08:04:23;;;;;;;7.97;4.80;;;;;;;;;;5043353;28;20173;-86
2022/07/28 08:07:27;;;;;;;7.67;4.63;;;;;;;;;;5032164;28;20181;-85
2022/07/28 08:10:33;;;;;;;6.97;5.03;;;;;;;;;;5020779;28;20203;-84
2022/07/28 08:13:37;;;;;;;7.63;4.67;;;;;;;;;;5032174;28;20208;-85
2022/07/28 08:16:41;;;;;;;8.97;4.80;;;;;;;;;;5020209;28;20559;-85
2022/07/28 08:19:45;;;;;;;6.90;4.67;;;;;;;;;;5049938;28;20187;-85
2022/07/28 08:22:52;;;;;;;7.40;4.57;;;;;;;;;;5026623;28;20193;-86
2022/07/28 08:25:56;;;;;;;5.80;4.67;;;;;;;;;;5020244;28;20215;-85
2022/07/28 08:29:00;;;;;;;8.07;4.53;;;;;;;;;;5031845;28;20180;-85
2022/07/28 08:32:05;;;;;;;7.82;4.20;;;;;;;;;;5020626;28;20520;-90
2022/07/28 08:35:12;;;;;;;7.72;4.32;;;;;;;;;;5020636;28;20222;-90
2022/07/28 08:38:16;;;;;;;6.47;4.18;;;;;;;;;;5052270;28;20188;-85
2022/07/28 08:41:45;;;;;;;5.97;4.30;;;;;;;;;;5040260;28;20631;-85
2022/07/28 08:45:04;;;;;;;9.13;4.30;;;;;;;;;;5040666;28;20589;-85
2022/07/28 08:48:09;;;;;;;6.47;3.90;;;;;;;;;;5039646;28;20537;-85
2022/07/28 08:51:14;;;;;;;9.57;4.47;;;;;;;;;;5050796;28;20187;-86
2022/07/28 08:54:21;;;;;;;6.25;3.60;;;;;;;;;;5039491;28;20220;-85
2022/07/28 08:57:31;;;;;;;4.88;3.72;;;;;;;;;;5050629;28;20200;-85
2022/07/28 09:00:35;;;;;;;4.65;3.58;;;;;;;;;;5073725;28;20184;-85
2022/07/28 09:03:40;;;;;;;8.00;3.45;;;;;;;;;;5050540;28;20196;-85
2022/07/28 09:06:45;;;;;;;4.65;3.15;;;;;;;;;;5050999;28;20217;-85
2022/07/28 09:09:49;;;;;;;7.65;3.50;;;;;;;;;;5050946;28;20187;-86
2022/07/28 09:12:54;;;;;;;8.15;3.90;;;;;;;;;;5062717;28;20178;-85
2022/07/28 09:15:58;;;;;;;3.72;2.97;;;;;;;;;;5062785;28;20222;-86
2022/07/28 09:19:02;;;;;;;6.25;3.42;;;;;;;;;;5050553;28;20182;-85
2022/07/28 09:22:06;;;;;;;6.00;3.83;;;;;;;;;;5039871;28;20176;-86
2022/07/28 09:25:17;;;;;;;5.93;4.68;;;;;;;;;;5050951;28;20168;-85
2022/07/28 09:28:22;;;;;;;4.40;3.22;;;;;;;;;;5050443;28;20184;-86
2022/07/28 09:31:27;;;;;;;4.72;3.20;;;;;;;;;;5038671;28;20185;-85
2022/07/28 09:34:48;;;;;;;4.10;3.03;;;;;;;;;;5050127;28;20668;-85
2022/07/28 09:37:59;;;;;;;6.72;3.40;;;;;;;;;;5050334;28;20194;-85
2022/07/28 09:41:06;;;;;;;8.15;3.13;;;;;;;;;;5038909;28;20191;-85
2022/07/28 09:44:18;;;;;;;5.97;2.70;;;;;;;;;;5050710;28;20184;-85
2022/07/28 09:47:25;;;;;;;4.20;3.00;;;;;;;;;;5050958;28;20211;-85
2022/07/28 09:50:30;;;;;;;4.32;2.75;;;;;;;;;;5039132;28;20175;-85
2022/07/28 09:53:34;;;;;;;3.72;2.80;;;;;;;;;;5050276;28;20555;-86
2022/07/28 09:56:41;;;;;;;3.88;2.33;;;;;;;;;;5039687;28;20211;-85
2022/07/28 09:59:46;;;;;;;3.22;2.75;;;;;;;;;;5050822;28;20176;-85
2022/07/28 10:02:50;;;;;;;4.45;2.63;;;;;;;;;;5050460;28;20179;-85
2022/07/28 10:05:57;;;;;;;6.00;2.63;;;;;;;;;;5039181;28;20688;-85
2022/07/28 10:09:04;;;;;;;4.95;2.63;;;;;;;;;;5050503;28;20176;-86
2022/07/28 10:12:15;;;;;;;4.95;2.58;;;;;;;;;;5050978;28;20172;-86
2022/07/28 10:18:42;;;;;;;5.07;2.20;;;;;;;;;;5066284;28;20610;-86
2022/07/28 10:21:49;;;;;;;5.85;2.70;;;;;;;;;;5045199;28;20200;-86
2022/07/28 10:24:53;;;;;;;3.30;2.42;;;;;;;;;;5046781;28;20196;-86
2022/07/28 10:28:00;;;;;;;5.05;2.70;;;;;;;;;;5025504;23;20238;-90
2022/07/28 10:31:08;;;;;;;3.58;2.50;;;;;;;;;;4996578;28;20191;-88
2022/07/28 10:34:25;;;;;;;4.13;2.60;;;;;;;;;;4996234;28;20210;-90
2022/07/28 10:37:30;;;;;;;3.67;2.35;;;;;;;;;;4985338;28;20218;-90
2022/07/28 10:40:39;;;;;;;4.53;2.42;;;;;;;;;;4985189;28;20183;-90
2022/07/28 10:43:46;;;;;;;14.35;3.17;;;;;;;;;;4963428;28;20178;-90
2022/07/28 10:46:51;;;;;;;5.78;2.50;;;;;;;;;;4974669;28;20221;-90
2022/07/28 10:49:55;;;;;;;4.32;2.60;;;;;;;;;;4962325;28;20194;-90
2022/07/28 10:53:02;;;;;;;5.78;2.80;;;;;;;;;;4974269;28;20190;-90
2022/07/28 10:56:16;;;;;;;3.85;2.15;;;;;;;;;;4973991;28;20187;-90
2022/07/28 10:59:39;;;;;;;3.20;2.50;;;;;;;;;;4973282;28;20202;-91
2022/07/28 11:02:57;;;;;;;5.10;2.58;;;;;;;;;;4980102;28;20194;-90
2022/07/28 11:06:37;;;;;;;2.60;2.28;;;;;;;;;;4973127;28;20191;-90
2022/07/28 11:09:42;;;;;;;3.30;1.95;;;;;;;;;;4974020;28;20187;-90
2022/07/28 11:12:53;;;;;;;3.25;1.92;;;;;;;;;;4984113;28;20198;-90
2022/07/28 11:16:12;;;;;;;7.03;2.67;;;;;;;;;;4962099;28;20211;-90
2022/07/28 11:19:17;;;;;;;4.13;2.15;;;;;;;;;;4962246;28;20183;-90
2022/07/28 11:22:29;;;;;;;10.10;2.40;;;;;;;;;;4970421;28;20190;-90
2022/07/28 11:25:33;;;;;;;4.85;2.03;;;;;;;;;;4984375;28;20567;-90
2022/07/28 11:28:59;;;;;;;2.58;2.17;;;;;;;;;;4972490;28;20190;-90
2022/07/28 11:32:04;;;;;;;3.55;2.33;;;;;;;;;;4960677;28;20649;-88
2022/07/28 11:35:08;;;;;;;5.65;2.20;;;;;;;;;;4971814;28;20673;-89
2022/07/28 11:38:13;;;;;;;9.02;2.20;;;;;;;;;;4962094;28;20323;-90
2022/07/28 11:41:30;;;;;;;7.38;2.40;;;;;;;;;;4984000;28;20518;-90
2022/07/28 11:44:34;;;;;;;3.65;2.40;;;;;;;;;;4985165;28;20187;-90
2022/07/28 11:47:38;;;;;;;5.88;2.22;;;;;;;;;;4973324;28;20561;-90
2022/07/28 11:51:02;;;;;;;3.88;2.63;;;;;;;;;;4964724;28;20187;-90
2022/07/28 11:54:15;;;;;;;5.32;2.78;;;;;;;;;;4950937;28;20195;-90
2022/07/28 11:57:22;;;;;;;5.60;2.22;;;;;;;;;;4973006;28;20214;-91
2022/07/28 12:00:26;;;;;;;4.30;2.38;;;;;;;;;;4961351;28;20206;-90
2022/07/28 12:03:34;;;;;;;3.20;2.08;;;;;;;;;;4983764;28;20191;-90
2022/07/28 12:06:39;;;;;;;2.55;2.03;;;;;;;;;;4995053;28;20214;-90
2022/07/28 12:09:43;;;;;;;7.63;2.35;;;;;;;;;;4975343;28;20195;-90
2022/07/28 12:12:50;;;;;;;4.00;2.03;;;;;;;;;;4953001;28;20179;-90
2022/07/28 12:15:54;;;;;;;4.28;1.90;;;;;;;;;;4953271;28;20223;-90
2022/07/28 12:19:00;;;;;;;2.60;1.95;;;;;;;;;;4972202;28;20198;-90
2022/07/28 12:22:11;;;;;;;4.32;2.25;;;;;;;;;;4983835;28;20626;-90
2022/07/28 12:25:15;;;;;;;3.75;2.30;;;;;;;;;;4960707;28;20183;-90
2022/07/28 12:28:21;;;;;;;8.02;2.70;;;;;;;;;;4960664;28;20562;-90
2022/07/28 12:31:28;;;;;;;2.42;1.92;;;;;;;;;;5006160;28;20182;-90
2022/07/28 12:34:33;;;;;;;4.13;2.00;;;;;;;;;;4982868;28;20566;-90
2022/07/28 12:37:37;;;;;;;3.45;2.17;;;;;;;;;;4963795;28;20555;-90
2022/07/28 12:40:43;;;;;;;3.92;2.33;;;;;;;;;;4981855;28;20191;-90
2022/07/28 12:43:54;;;;;;;4.40;2.08;;;;;;;;;;4978020;28;20186;-90
2022/07/28 12:46:58;;;;;;;3.58;2.28;;;;;;;;;;4982624;28;20211;-90
2022/07/28 12:50:18;;;;;;;3.50;1.95;;;;;;;;;;4971538;28;20198;-90
2022/07/28 12:53:24;;;;;;;5.32;2.33;;;;;;;;;;4952962;28;20195;-90
2022/07/28 12:56:29;;;;;;;3.28;1.90;;;;;;;;;;4953061;28;20215;-90
2022/07/28 12:59:35;;;;;;;3.67;2.22;;;;;;;;;;4952365;28;20199;-90
2022/07/28 13:02:39;;;;;;;3.80;2.30;;;;;;;;;;4955222;28;20551;-90
2022/07/28 13:06:01;;;;;;;2.67;2.15;;;;;;;;;;4960614;28;20652;-90
2022/07/28 13:09:05;;;;;;;3.95;2.25;;;;;;;;;;4982599;28;20183;-90
2022/07/28 13:12:23;;;;;;;5.93;2.30;;;;;;;;;;4963177;28;20194;-90
2022/07/28 13:15:28;;;;;;;4.85;2.03;;;;;;;;;;4974485;28;20211;-91
2022/07/28 13:18:42;;;;;;;5.38;2.28;;;;;;;;;;4974195;28;20215;-91
2022/07/28 13:21:50;;;;;;;2.22;1.90;;;;;;;;;;4961475;28;20191;-91
2022/07/28 13:24:57;;;;;;;5.35;2.00;;;;;;;;;;4964839;28;20201;-91
2022/07/28 13:28:01;;;;;;;3.85;1.90;;;;;;;;;;4960029;28;20226;-91
2022/07/28 13:31:05;;;;;;;3.80;2.20;;;;;;;;;;4971146;28;20190;-91
2022/07/28 13:34:10;;;;;;;3.47;2.15;;;;;;;;;;4957676;28;20190;-90
2022/07/28 13:37:14;;;;;;;3.22;2.08;;;;;;;;;;4982307;28;20237;-91
2022/07/28 13:40:18;;;;;;;4.60;1.85;;;;;;;;;;4960316;28;20206;-90
2022/07/28 13:43:22;;;;;;;4.68;2.03;;;;;;;;;;4960067;28;20657;-91
2022/07/28 13:46:27;;;;;;;3.15;2.08;;;;;;;;;;4960010;28;20194;-90
2022/07/28 13:49:33;;;;;;;3.35;2.05;;;;;;;;;;4985787;28;20660;-91
2022/07/28 13:52:37;;;;;;;4.80;1.90;;;;;;;;;;4972907;28;20533;-90
2022/07/28 13:55:41;;;;;;;5.38;2.13;;;;;;;;;;4961896;28;20218;-91
2022/07/28 13:58:45;;;;;;;3.47;2.47;;;;;;;;;;4974733;28;20186;-91
2022/07/28 14:01:50;;;;;;;4.35;2.08;;;;;;;;;;4997198;28;20637;-90
2022/07/28 14:05:00;;;;;;;2.45;1.80;;;;;;;;;;4978167;28;20211;-91
2022/07/28 14:08:04;;;;;;;2.67;2.10;;;;;;;;;;4985242;28;20226;-91
2022/07/28 14:11:08;;;;;;;4.40;2.25;;;;;;;;;;4974865;28;20186;-91
2022/07/28 14:14:13;;;;;;;4.80;2.10;;;;;;;;;;4957111;28;20210;-91
2022/07/28 14:17:21;;;;;;;4.45;2.65;;;;;;;;;;4985120;28;20218;-90
2022/07/28 14:20:25;;;;;;;5.90;2.08;;;;;;;;;;4963206;28;20532;-91
2022/07/28 14:23:30;;;;;;;4.07;1.80;;;;;;;;;;4963383;28;20202;-91
2022/07/28 14:26:34;;;;;;;2.60;2.05;;;;;;;;;;4985061;28;20592;-90
2022/07/28 14:29:38;;;;;;;5.78;1.98;;;;;;;;;;4974801;28;20182;-91
2022/07/28 14:32:42;;;;;;;3.72;1.90;;;;;;;;;;4974215;28;20528;-90
2022/07/28 14:35:47;;;;;;;3.85;2.13;;;;;;;;;;4980447;28;20198;-91
2022/07/28 14:38:51;;;;;;;2.70;1.75;;;;;;;;;;4974223;28;20194;-91
2022/07/28 14:41:55;;;;;;;3.70;1.98;;;;;;;;;;5007960;28;20183;-90
2022/07/28 14:45:01;;;;;;;3.78;2.10;;;;;;;;;;4962766;28;20190;-91
2022/07/28 14:48:05;;;;;;;6.30;1.85;;;;;;;;;;4963238;28;20685;-90
2022/07/28 14:51:12;;;;;;;4.55;1.80;;;;;;;;;;4963070;28;20178;-91
2022/07/28 14:54:16;;;;;;;3.67;1.85;;;;;;;;;;4970862;28;20182;-91
2022/07/28 14:57:20;;;;;;;5.45;2.00;;;;;;;;;;4984972;28;20551;-91
2022/07/28 15:00:28;;;;;;;4.00;2.08;;;;;;;;;;4974046;28;20186;-91
2022/07/28 15:03:33;;;;;;;3.75;2.50;;;;;;;;;;4972603;28;20664;-90
2022/07/28 15:06:36;;;;;;;4.32;2.00;;;;;;;;;;4996313;28;20234;-91
2022/07/28 15:09:40;;;;;;;5.97;2.40;;;;;;;;;;4962876;28;20182;-91
2022/07/28 15:12:45;;;;;;;2.70;2.17;;;;;;;;;;4973139;28;20194;-91
2022/07/28 15:15:49;;;;;;;2.92;2.15;;;;;;;;;;4984552;28;20669;-91
2022/07/28 15:18:54;;;;;;;4.50;2.17;;;;;;;;;;4995589;28;20202;-89
2022/07/28 15:21:58;;;;;;;4.05;2.20;;;;;;;;;;4973181;28;20194;-91
2022/07/28 15:25:04;;;;;;;3.22;2.13;;;;;;;;;;4961878;28;20657;-91
2022/07/28 15:28:07;;;;;;;2.33;2.10;;;;;;;;;;4961934;28;20222;-90
2022/07/28 15:31:12;;;;;;;3.40;2.30;;;;;;;;;;4973161;28;20547;-90
2022/07/28 15:34:16;;;;;;;10.43;4.00;;;;;;;;;;4964846;28;20198;-90
2022/07/28 15:37:20;;;;;;;7.93;3.97;;;;;;;;;;4972726;28;20228;-90
2022/07/28 15:40:24;;;;;;;4.72;2.80;;;;;;;;;;4984593;28;20185;-91
2022/07/28 15:43:31;;;;;;;5.55;2.70;;;;;;;;;;4973556;28;20195;-91
2022/07/28 15:46:36;;;;;;;5.30;2.55;;;;;;;;;;4972700;28;20230;-90
2022/07/28 15:49:40;;;;;;;5.13;2.65;;;;;;;;;;4985349;28;20190;-91
2022/07/28 15:52:44;;;;;;;2.95;2.05;;;;;;;;;;4973170;28;20179;-92
2022/07/28 15:55:48;;;;;;;5.97;1.88;;;;;;;;;;4988555;28;20195;-90
2022/07/28 15:58:57;;;;;;;4.53;2.00;;;;;;;;;;4953999;28;20182;-90
2022/07/28 16:02:01;;;;;;;2.22;1.88;;;;;;;;;;4959980;28;20542;-90
2022/07/28 16:05:07;;;;;;;3.40;2.22;;;;;;;;;;4986920;28;20201;-93
2022/07/28 16:08:11;;;;;;;6.75;2.22;;;;;;;;;;4994673;28;20222;-90
2022/07/28 16:11:16;;;;;;;5.85;2.13;;;;;;;;;;4972898;28;20178;-88
2022/07/28 16:14:20;;;;;;;7.82;2.38;;;;;;;;;;4983580;28;20180;-89
2022/07/28 16:17:49;;;;;;;4.95;2.00;;;;;;;;;;4972707;28;20212;-91
2022/07/28 16:20:53;;;;;;;3.50;2.50;;;;;;;;;;4983085;28;20185;-89
2022/07/28 16:23:57;;;;;;;2.90;2.03;;;;;;;;;;4961377;28;20181;-88
2022/07/28 16:27:02;;;;;;;6.45;2.50;;;;;;;;;;4958943;28;20232;-91
2022/07/28 16:30:12;;;;;;;4.05;2.58;;;;;;;;;;5015249;23;20238;-90
2022/07/28 16:33:35;;;;;;;5.05;2.25;;;;;;;;;;5023498;28;20189;-89
2022/07/28 16:36:39;;;;;;;4.07;2.22;;;;;;;;;;5019577;28;20195;-88
2022/07/28 16:39:43;;;;;;;4.60;2.03;;;;;;;;;;5031747;28;20549;-88
2022/07/28 16:42:52;;;;;;;9.85;2.40;;;;;;;;;;5031321;28;20661;-89
2022/07/28 16:45:56;;;;;;;4.03;2.08;;;;;;;;;;5018950;28;20561;-88
2022/07/28 16:49:01;;;;;;;6.28;2.63;;;;;;;;;;5040317;28;20190;-88
2022/07/28 16:52:14;;;;;;;2.55;1.90;;;;;;;;;;5024098;28;20203;-89
2022/07/28 16:55:18;;;;;;;4.53;2.15;;;;;;;;;;5031532;28;20184;-85
2022/07/28 16:58:22;;;;;;;4.07;2.20;;;;;;;;;;5041587;28;20183;-86
2022/07/28 17:01:27;;;;;;;6.20;2.38;;;;;;;;;;5031817;28;20183;-85
2022/07/28 17:04:31;;;;;;;3.75;2.50;;;;;;;;;;5042531;28;21061;-86
2022/07/28 17:07:43;;;;;;;12.45;7.05;;;;;;;;;;5030360;28;20712;-85
2022/07/28 17:10:47;;;;;;;66.97;17.52;;;;;;;;;;5019498;28;20741;-86
2022/07/28 17:13:50;;;;;;;4.63;2.92;;;;;;;;;;5022201;28;20206;-84
2022/07/28 17:16:55;;;;;;;228.82;203.93;;;;;;;;;;5020422;28;20189;-85
2022/07/28 17:20:00;;;;;;;3.88;2.63;;;;;;;;;;5026191;28;20234;-88
2022/07/28 17:23:04;;;;;;;21.58;4.85;;;;;;;;;;5018416;28;20199;-85
2022/07/28 17:26:08;;;;;;;11.27;6.65;;;;;;;;;;5021654;28;20236;-85
2022/07/28 17:29:12;;;;;;;7.95;4.60;;;;;;;;;;5026231;28;20220;-88
2022/07/28 17:32:16;;;;;;;12.52;7.03;;;;;;;;;;5023594;28;20191;-85
2022/07/28 17:35:20;;;;;;;23.73;15.63;;;;;;;;;;5032397;28;20198;-85
2022/07/28 17:38:25;;;;;;;10.27;7.63;;;;;;;;;;5020675;28;20552;-85
2022/07/28 17:41:34;;;;;;;144.73;122.85;;;;;;;;;;5016452;28;20221;-85
2022/07/28 17:44:38;;;;;;;318.00;264.08;;;;;;;;;;5009344;28;20195;-85
2022/07/28 17:47:43;;;;;;;8.40;6.15;;;;;;;;;;5011066;28;20222;-85
2022/07/28 17:50:47;;;;;;;6.28;4.78;;;;;;;;;;5032192;28;20224;-85
2022/07/28 17:53:51;;;;;;;4.30;3.30;;;;;;;;;;5040431;28;20520;-85
2022/07/28 17:56:56;;;;;;;6.75;3.50;;;;;;;;;;5043127;28;20192;-85
2022/07/28 17:59:59;;;;;;;4.07;3.05;;;;;;;;;;5043172;28;20220;-85
2022/07/28 18:03:04;;;;;;;4.55;2.60;;;;;;;;;;5030692;28;20208;-85
2022/07/28 18:06:08;;;;;;;3.60;2.33;;;;;;;;;;5032686;28;20214;-86
2022/07/28 18:09:13;;;;;;;5.07;2.40;;;;;;;;;;5030853;28;20212;-85
2022/07/28 18:12:17;;;;;;;4.80;2.10;;;;;;;;;;5030977;28;20191;-85
2022/07/28 18:15:21;;;;;;;4.82;2.60;;;;;;;;;;5043820;28;20625;-85
2022/07/28 18:18:25;;;;;;;5.00;2.80;;;;;;;;;;5032301;28;20188;-85
2022/07/28 18:21:29;;;;;;;6.72;2.80;;;;;;;;;;5032997;28;20200;-85
2022/07/28 18:24:33;;;;;;;6.90;2.47;;;;;;;;;;5032725;28;20633;-85
2022/07/28 18:27:38;;;;;;;3.60;2.15;;;;;;;;;;5025201;28;20218;-85
2022/07/28 18:30:43;;;;;;;6.97;3.97;;;;;;;;;;5037881;28;20228;-85
2022/07/28 18:33:47;;;;;;;15.43;9.47;;;;;;;;;;5038484;28;20530;-85
2022/07/28 18:36:52;;;;;;;12.53;9.83;;;;;;;;;;5039219;28;20183;-86
2022/07/28 18:39:57;;;;;;;14.23;10.57;;;;;;;;;;5043089;28;20229;-85
2022/07/28 18:43:01;;;;;;;10.07;7.27;;;;;;;;;;5043168;28;20205;-85